Time;durP1;ratioP1;P1;durP2;ratioP2;P2;SDS_P1;SDS_P2;PMS_P1;PMS_P2;Temp;Humidity;BMP_temperature;BMP_pressure;BME280_temperature;BME280_humidity;BME280_pressure;Samples;Min_cycle;Max_cycle;Signal;HPM_P1;HPM_P2
2022/11/29 00:00:28;;;;;;;5.13;3.17;;;;;;;19.31;44.96;101325.66;4963854;28;20645;-67
2022/11/29 00:02:53;;;;;;;5.30;2.78;;;;;;;19.29;45.10;101330.22;4966352;28;20391;-66
2022/11/29 00:05:19;;;;;;;4.45;2.80;;;;;;;19.29;44.97;101332.88;4965877;28;20027;-67
2022/11/29 00:07:44;;;;;;;5.60;2.80;;;;;;;19.27;45.21;101327.72;4966330;28;20050;-67
2022/11/29 00:10:09;;;;;;;6.32;3.35;;;;;;;19.24;44.87;101320.03;4965834;28;20038;-68
2022/11/29 00:12:35;;;;;;;5.45;3.03;;;;;;;19.24;44.74;101327.13;4966096;28;20070;-67
2022/11/29 00:15:00;;;;;;;5.27;3.00;;;;;;;19.25;44.98;101337.56;4966443;28;20150;-68
2022/11/29 00:17:25;;;;;;;5.68;3.10;;;;;;;19.24;44.86;101338.50;4966204;28;20265;-67
2022/11/29 00:19:50;;;;;;;5.67;3.27;;;;;;;19.20;44.96;101332.63;4965888;28;20069;-67
2022/11/29 00:22:16;;;;;;;5.88;3.25;;;;;;;19.22;44.77;101343.09;4965838;28;20311;-67
2022/11/29 00:24:41;;;;;;;6.57;3.50;;;;;;;19.21;44.83;101342.22;4965890;28;20027;-67
2022/11/29 00:27:07;;;;;;;4.78;3.08;;;;;;;19.20;45.02;101348.50;4980720;28;20315;-66
2022/11/29 00:29:32;;;;;;;5.75;3.10;;;;;;;19.16;44.88;101339.09;4965562;28;20039;-68
2022/11/29 00:31:58;;;;;;;6.00;3.47;;;;;;;19.18;44.82;101349.56;4965763;28;20460;-65
2022/11/29 00:34:24;;;;;;;5.55;2.95;;;;;;;19.15;44.89;101352.44;4965896;28;20030;-65
2022/11/29 00:36:49;;;;;;;6.00;3.03;;;;;;;19.15;44.83;101348.03;4965920;28;20117;-68
2022/11/29 00:39:15;;;;;;;5.22;3.30;;;;;;;19.12;44.75;101344.75;4965393;28;20153;-66
2022/11/29 00:41:41;;;;;;;6.82;3.28;;;;;;;19.11;44.72;101345.72;4965291;28;20035;-69
2022/11/29 00:44:07;;;;;;;5.22;3.42;;;;;;;19.13;44.79;101349.91;4966065;28;20062;-65
2022/11/29 00:46:32;;;;;;;5.78;3.20;;;;;;;19.11;44.62;101351.84;4966012;28;20035;-67
2022/11/29 00:48:57;;;;;;;6.07;3.03;;;;;;;19.09;44.64;101347.63;4965568;28;20043;-67
2022/11/29 00:51:23;;;;;;;6.43;3.53;;;;;;;19.09;44.77;101343.19;4965490;28;20046;-67
2022/11/29 00:53:48;;;;;;;7.18;3.28;;;;;;;19.08;44.59;101344.16;4965356;28;20039;-65
2022/11/29 00:56:13;;;;;;;6.20;3.05;;;;;;;19.08;44.74;101348.59;4965293;28;20479;-67
2022/11/29 00:58:41;;;;;;;5.55;3.35;;;;;;;19.04;44.73;101342.69;4965095;28;20039;-67
2022/11/29 01:01:06;;;;;;;5.78;3.50;;;;;;;19.06;44.70;101342.59;4965369;28;20041;-65
2022/11/29 01:03:32;;;;;;;6.80;4.07;;;;;;;19.05;44.62;101339.09;4965312;28;20034;-67
2022/11/29 01:06:06;;;;;;;5.45;3.10;;;;;;;19.03;44.77;101341.88;4980023;28;20038;-68
2022/11/29 01:08:32;;;;;;;6.03;3.17;;;;;;;18.95;44.82;101330.22;4964863;28;20375;-67
2022/11/29 01:11:03;;;;;;;5.70;3.13;;;;;;;18.99;44.65;101337.78;4964923;28;20498;-68
2022/11/29 01:13:28;;;;;;;5.82;3.40;;;;;;;18.98;44.39;101340.56;4964583;28;20046;-66
2022/11/29 01:15:55;;;;;;;5.25;3.70;;;;;;;18.99;44.52;101350.16;4965156;28;20023;-68
2022/11/29 01:18:20;;;;;;;6.78;3.70;;;;;;;18.98;44.40;101351.94;4965056;28;20053;-68
2022/11/29 01:20:54;;;;;;;6.70;3.65;;;;;;;18.96;44.74;101351.25;4964716;28;20475;-68
2022/11/29 01:23:20;;;;;;;5.82;3.67;;;;;;;18.97;44.56;101346.78;4965082;28;20617;-66
2022/11/29 01:25:45;;;;;;;6.35;3.53;;;;;;;18.94;44.35;101350.50;4964539;28;20875;-65
2022/11/29 01:28:10;;;;;;;6.18;3.63;;;;;;;18.93;44.55;101351.47;4965134;28;20046;-69
2022/11/29 01:30:36;;;;;;;8.63;3.88;;;;;;;18.91;44.69;101350.72;4964901;28;20094;-66
2022/11/29 01:33:01;;;;;;;5.85;3.58;;;;;;;18.94;44.58;101361.06;4964915;28;20054;-66
2022/11/29 01:35:27;;;;;;;5.95;3.45;;;;;;;18.91;44.32;101353.38;4964693;28;20656;-67
2022/11/29 01:37:52;;;;;;;6.15;3.85;;;;;;;18.90;44.42;101357.00;4964762;28;20038;-66
2022/11/29 01:40:17;;;;;;;6.32;3.33;;;;;;;18.90;44.43;101362.28;4964424;28;20069;-67
2022/11/29 01:42:43;;;;;;;5.07;3.42;;;;;;;18.92;44.55;101367.44;4964858;28;20450;-68
2022/11/29 01:45:25;;;;;;;6.28;3.63;;;;;;;18.89;44.65;101365.84;4964924;28;20066;-68
2022/11/29 01:47:56;;;;;;;5.43;3.55;;;;;;;18.85;44.18;101370.53;4964848;28;20038;-68
2022/11/29 01:50:21;;;;;;;6.57;4.07;;;;;;;18.88;44.12;101377.38;4964478;28;20026;-68
2022/11/29 01:52:47;;;;;;;5.18;3.55;;;;;;;18.88;44.17;101382.66;4964305;28;20027;-67
2022/11/29 01:55:13;;;;;;;5.82;4.00;;;;;;;18.83;44.19;101385.63;4964620;28;20605;-67
2022/11/29 01:57:40;;;;;;;6.50;3.83;;;;;;;18.85;44.45;101381.09;4964785;28;20034;-69
2022/11/29 02:00:16;;;;;;;6.32;3.70;;;;;;;18.84;44.41;101392.63;4963930;28;20384;-66
2022/11/29 02:02:47;;;;;;;6.95;4.28;;;;;;;18.83;44.51;101390.06;4964458;28;20035;-68
2022/11/29 02:05:15;;;;;;;6.00;4.05;;;;;;;18.81;44.01;101394.63;4964127;28;20070;-70
2022/11/29 02:07:45;;;;;;;6.40;4.03;;;;;;;18.81;44.36;101402.53;4964168;28;20034;-66
2022/11/29 02:10:11;;;;;;;6.28;4.07;;;;;;;18.80;44.31;101400.84;4964307;28;20062;-66
2022/11/29 02:13:00;;;;;;;7.07;3.67;;;;;;;18.81;44.13;101398.09;4963927;28;20031;-68
2022/11/29 02:15:41;;;;;;;5.53;3.53;;;;;;;18.80;44.31;101411.41;4963870;28;20038;-67
2022/11/29 02:18:22;;;;;;;6.78;4.07;;;;;;;18.78;44.36;101406.25;4963858;28;20034;-66
2022/11/29 02:21:10;;;;;;;5.90;4.10;;;;;;;18.77;44.43;101406.34;4978854;28;20081;-65
2022/11/29 02:24:09;;;;;;;5.80;3.90;;;;;;;18.79;44.23;101407.94;4963354;28;20046;-68
2022/11/29 02:26:48;;;;;;;5.35;3.78;;;;;;;18.74;44.06;101404.81;4963761;28;20031;-66
2022/11/29 02:29:51;;;;;;;5.90;4.25;;;;;;;18.77;44.30;101412.50;4964011;28;20489;-67
2022/11/29 02:32:34;;;;;;;5.88;3.80;;;;;;;18.77;44.16;101414.28;4963187;28;20084;-67
2022/11/29 02:35:15;;;;;;;6.85;4.20;;;;;;;18.74;44.27;101403.94;4963638;28;20066;-68
2022/11/29 02:38:16;;;;;;;6.72;4.10;;;;;;;18.76;44.14;101407.34;4963721;28;20121;-67
2022/11/29 02:41:10;;;;;;;6.18;4.00;;;;;;;18.76;44.39;101402.88;4963409;28;20097;-66
2022/11/29 02:43:56;;;;;;;6.22;3.65;;;;;;;18.76;44.14;101404.69;4963806;28;20037;-68
2022/11/29 02:46:43;;;;;;;5.40;3.58;;;;;;;18.76;44.33;101412.63;4963682;28;20054;-68
2022/11/29 02:49:23;;;;;;;7.28;3.90;;;;;;;18.73;44.33;101408.41;4962951;28;20037;-67
2022/11/29 02:51:59;;;;;;;5.18;3.40;;;;;;;18.74;44.43;101414.50;4963398;28;20027;-67
2022/11/29 02:54:40;;;;;;;6.25;3.90;;;;;;;18.70;44.36;101403.34;4963496;28;20031;-66
2022/11/29 02:57:16;;;;;;;5.47;3.55;;;;;;;18.69;44.17;101406.94;4962991;28;20057;-66
2022/11/29 02:59:57;;;;;;;5.00;3.40;;;;;;;18.70;44.18;101421.81;4963116;28;20494;-67
2022/11/29 03:02:57;;;;;;;5.75;3.95;;;;;;;18.72;44.30;101425.19;4963221;28;20038;-70
2022/11/29 03:05:33;;;;;;;6.07;4.40;;;;;;;18.70;44.23;101421.81;4969266;28;20071;-67
2022/11/29 03:08:16;;;;;;;5.65;4.00;;;;;;;18.67;44.11;101420.28;4963054;28;20125;-67
2022/11/29 03:11:16;;;;;;;5.45;3.90;;;;;;;18.70;44.17;101426.28;4963062;28;20097;-68
2022/11/29 03:13:57;;;;;;;5.40;3.97;;;;;;;18.69;44.31;101428.03;4963203;28;20122;-64
2022/11/29 03:17:12;;;;;;;5.40;3.90;;;;;;;18.68;44.30;101432.50;4963088;28;20062;-67
2022/11/29 03:20:00;;;;;;;5.13;3.67;;;;;;;18.68;43.85;101439.59;4962770;28;20042;-66
2022/11/29 03:22:53;;;;;;;5.53;3.92;;;;;;;18.64;44.14;101430.19;4962869;28;20046;-67
2022/11/29 03:25:31;;;;;;;6.28;4.00;;;;;;;18.64;43.88;101441.63;4962891;28;20066;-66
2022/11/29 03:28:03;;;;;;;5.22;3.80;;;;;;;18.62;44.01;101440.88;4962836;28;20038;-68
2022/11/29 03:30:33;;;;;;;5.97;4.10;;;;;;;18.58;44.27;101434.16;4962812;28;20161;-67
2022/11/29 03:33:08;;;;;;;5.18;3.63;;;;;;;18.63;43.94;101445.19;4962491;28;20055;-67
2022/11/29 03:35:59;;;;;;;6.18;4.20;;;;;;;18.61;44.11;101451.53;4962677;28;20509;-67
2022/11/29 03:38:27;;;;;;;5.68;4.20;;;;;;;18.62;43.99;101450.59;4962912;28;20038;-67
2022/11/29 03:41:17;;;;;;;5.20;3.67;;;;;;;18.59;43.92;101448.19;4962674;28;20365;-68
2022/11/29 03:44:00;;;;;;;6.47;3.80;;;;;;;18.60;44.08;101457.78;4962692;28;20038;-68
2022/11/29 03:46:59;;;;;;;5.35;3.88;;;;;;;18.60;43.79;101458.63;4962572;28;21091;-68
2022/11/29 03:49:34;;;;;;;5.13;3.78;;;;;;;18.57;43.73;101458.03;4962408;28;20070;-67
2022/11/29 03:52:14;;;;;;;5.43;3.80;;;;;;;18.59;44.01;101464.03;4977150;28;20422;-69
2022/11/29 03:54:39;;;;;;;5.53;3.80;;;;;;;18.56;43.63;101462.44;4962794;28;20041;-66
2022/11/29 03:57:05;;;;;;;5.73;4.17;;;;;;;18.56;43.91;101458.97;4962876;28;20043;-65
2022/11/29 03:59:40;;;;;;;5.63;4.03;;;;;;;18.57;43.80;101466.78;4962332;28;20336;-65
2022/11/29 04:02:23;;;;;;;;;;;;;;;18.62;43.77;101466.44;4963124;28;20047;-68
2022/11/29 04:05:10;;;;;;;5.43;3.88;;;;;;;18.57;43.87;101474.69;4962548;28;19980;-68
2022/11/29 04:08:07;;;;;;;5.50;4.00;;;;;;;18.57;43.66;101468.56;4977498;28;20035;-69
2022/11/29 04:10:55;;;;;;;5.40;3.60;;;;;;;18.53;43.97;101482.94;4962207;28;20039;-67
2022/11/29 04:13:42;;;;;;;5.95;3.70;;;;;;;18.56;44.03;101483.56;4962290;28;21012;-69
2022/11/29 04:16:13;;;;;;;5.25;3.65;;;;;;;18.53;43.98;101485.59;4962198;28;20039;-67
2022/11/29 04:18:56;;;;;;;4.85;3.63;;;;;;;18.55;43.91;101488.94;4962107;28;20043;-67
2022/11/29 04:21:43;;;;;;;5.60;3.63;;;;;;;18.54;43.71;101484.63;4962461;28;20026;-67
2022/11/29 04:24:47;;;;;;;4.85;3.50;;;;;;;18.52;43.76;101486.53;4962516;28;20035;-68
2022/11/29 04:27:40;;;;;;;5.35;3.50;;;;;;;18.54;43.76;101496.03;4968054;28;20100;-67
2022/11/29 04:30:21;;;;;;;5.35;3.88;;;;;;;18.51;43.84;101492.78;4962225;28;20063;-65
2022/11/29 04:33:06;;;;;;;5.28;3.53;;;;;;;18.52;43.76;101491.81;4962242;28;20051;-68
2022/11/29 04:35:41;;;;;;;5.47;3.72;;;;;;;18.50;43.92;101491.94;4962052;28;20031;-69
2022/11/29 04:38:43;;;;;;;4.85;3.50;;;;;;;18.51;43.70;101492.78;4961876;28;20035;-67
2022/11/29 04:41:30;;;;;;;4.82;3.47;;;;;;;18.51;43.83;101498.06;4961946;28;20387;-66
2022/11/29 04:44:01;;;;;;;5.03;3.63;;;;;;;18.49;43.78;101490.25;4961796;28;20043;-67
2022/11/29 04:46:29;;;;;;;5.88;3.78;;;;;;;18.47;43.92;101498.28;4961899;28;20034;-67
2022/11/29 04:49:22;;;;;;;4.78;3.53;;;;;;;18.48;43.85;101505.25;4965171;28;20035;-66
2022/11/29 04:52:09;;;;;;;5.43;3.70;;;;;;;18.45;43.89;101502.84;4965853;28;20061;-67
2022/11/29 04:54:55;;;;;;;5.63;3.70;;;;;;;18.47;43.52;101502.72;4965345;28;20069;-65
2022/11/29 04:57:27;;;;;;;4.80;3.67;;;;;;;18.46;43.65;101504.50;4965473;28;20094;-66
2022/11/29 05:00:07;;;;;;;5.05;3.60;;;;;;;18.42;43.43;101499.56;4964987;28;20038;-68
2022/11/29 05:02:41;;;;;;;4.60;3.28;;;;;;;18.45;43.77;101509.88;4965773;28;20026;-64
2022/11/29 05:05:44;;;;;;;4.47;3.40;;;;;;;18.47;43.58;101515.91;4965421;28;20027;-67
2022/11/29 05:08:37;;;;;;;4.70;3.50;;;;;;;18.46;43.59;101522.97;4965082;28;20073;-66
2022/11/29 05:11:19;;;;;;;4.78;3.28;;;;;;;18.40;43.49;101518.13;4965206;28;20030;-66
2022/11/29 05:13:49;;;;;;;5.28;3.80;;;;;;;18.45;43.40;101528.34;4979568;28;20246;-67
2022/11/29 05:16:44;;;;;;;4.38;3.35;;;;;;;18.44;43.60;101527.53;4965081;28;20109;-67
2022/11/29 05:19:26;;;;;;;4.47;3.38;;;;;;;18.45;43.55;101528.34;4965083;28;20030;-66
2022/11/29 05:22:01;;;;;;;4.78;3.63;;;;;;;18.42;43.42;101539.13;4964775;28;20190;-66
2022/11/29 05:24:52;;;;;;;4.85;3.47;;;;;;;18.43;43.46;101548.75;4965340;28;20472;-68
2022/11/29 05:27:31;;;;;;;4.82;3.40;;;;;;;18.41;43.40;101546.22;4965114;28;20551;-67
2022/11/29 05:30:10;;;;;;;5.30;3.60;;;;;;;18.40;43.23;101547.16;4964884;28;20563;-66
2022/11/29 05:33:12;;;;;;;5.10;3.60;;;;;;;18.42;43.49;101562.88;4965126;28;20051;-66
2022/11/29 05:35:51;;;;;;;4.82;3.55;;;;;;;18.40;43.34;101565.63;4964731;28;20066;-67
2022/11/29 05:39:04;;;;;;;5.15;3.50;;;;;;;18.40;43.32;101564.81;4964305;28;20127;-69
2022/11/29 05:41:51;;;;;;;5.22;3.97;;;;;;;18.39;43.50;101566.59;4964069;28;20121;-67
2022/11/29 05:44:38;;;;;;;4.90;3.50;;;;;;;18.39;43.21;101563.97;4964830;28;20042;-68
2022/11/29 05:47:09;;;;;;;4.80;3.60;;;;;;;18.39;43.22;101571.03;4964216;28;20029;-69
2022/11/29 05:49:41;;;;;;;4.80;3.60;;;;;;;18.37;43.61;101575.56;4964619;28;20043;-68
2022/11/29 05:52:34;;;;;;;4.72;3.60;;;;;;;18.35;43.32;101570.41;4964740;28;20035;-66
2022/11/29 05:55:33;;;;;;;4.50;3.30;;;;;;;18.37;43.28;101576.41;4964226;28;20027;-67
2022/11/29 05:58:21;;;;;;;5.03;3.72;;;;;;;18.37;43.37;101583.50;4964227;28;20034;-68
2022/11/29 06:00:55;;;;;;;5.38;3.47;;;;;;;18.33;43.46;101576.75;4964109;28;20042;-68
2022/11/29 06:03:26;;;;;;;;;;;;;;;18.42;43.53;101590.16;4965449;28;20030;-66
2022/11/29 06:05:59;;;;;;;4.97;3.40;;;;;;;18.37;43.42;101580.84;4964727;28;19910;-67
2022/11/29 06:08:38;;;;;;;4.43;3.35;;;;;;;18.38;43.70;101587.81;4964397;28;20066;-68
2022/11/29 06:11:10;;;;;;;4.78;3.30;;;;;;;18.42;43.53;101594.56;4964473;28;20046;-67
2022/11/29 06:14:01;;;;;;;4.55;3.22;;;;;;;18.42;43.67;101610.41;4964593;28;20031;-67
2022/11/29 06:16:52;;;;;;;4.80;3.33;;;;;;;18.47;43.83;101616.22;4965085;28;20397;-68
2022/11/29 06:19:47;;;;;;;3.83;2.70;;;;;;;18.51;43.78;101616.84;4964708;28;20090;-68
2022/11/29 06:22:24;;;;;;;4.68;2.90;;;;;;;18.53;43.84;101625.47;4965660;28;20097;-66
2022/11/29 06:25:24;;;;;;;4.18;2.80;;;;;;;18.58;43.76;101623.34;4964196;28;20126;-67
2022/11/29 06:28:15;;;;;;;4.05;3.00;;;;;;;18.62;43.69;101630.13;4964094;28;20046;-68
2022/11/29 06:30:53;;;;;;;4.28;2.80;;;;;;;18.65;43.92;101629.91;4963520;28;20395;-69
2022/11/29 06:33:25;;;;;;;4.47;2.97;;;;;;;18.68;43.76;101629.69;4963549;28;20097;-69
2022/11/29 06:36:10;;;;;;;4.22;2.80;;;;;;;18.71;43.80;101632.09;4963853;28;20043;-69
2022/11/29 06:38:36;;;;;;;4.47;2.80;;;;;;;18.76;43.73;101639.69;4963505;28;20034;-68
2022/11/29 06:41:01;;;;;;;4.55;2.60;;;;;;;18.79;43.48;101647.41;4963019;28;20042;-68
2022/11/29 06:43:27;;;;;;;4.45;2.85;;;;;;;18.81;43.71;101646.31;4963576;28;20027;-68
2022/11/29 06:45:58;;;;;;;3.95;2.90;;;;;;;18.77;43.59;101647.50;4963554;28;20060;-69
2022/11/29 06:48:28;;;;;;;4.75;3.00;;;;;;;18.84;43.58;101656.69;4963563;28;20053;-68
2022/11/29 06:51:07;;;;;;;4.18;2.83;;;;;;;18.85;43.39;101658.41;4963148;28;20499;-69
2022/11/29 06:53:55;;;;;;;3.78;2.55;;;;;;;18.87;43.62;101655.66;4963243;28;20431;-67
2022/11/29 06:56:42;;;;;;;4.25;2.88;;;;;;;18.91;43.57;101657.09;4963009;28;20073;-69
2022/11/29 06:59:35;;;;;;;5.30;3.05;;;;;;;18.91;43.60;101662.38;4963140;28;20090;-69
2022/11/29 07:02:20;;;;;;;4.50;2.60;;;;;;;18.92;43.59;101666.72;4963073;28;20439;-70
2022/11/29 07:05:10;;;;;;;5.03;3.25;;;;;;;18.97;43.30;101674.31;4963182;28;20089;-69
2022/11/29 07:07:35;;;;;;;4.03;2.40;;;;;;;18.95;43.42;101671.78;4963152;28;20074;-68
2022/11/29 07:10:03;;;;;;;4.50;3.00;;;;;;;18.95;43.27;101665.66;4962398;28;20125;-67
2022/11/29 07:12:29;;;;;;;4.50;2.90;;;;;;;18.98;43.25;101676.03;4962859;28;20053;-67
2022/11/29 07:14:54;;;;;;;4.85;2.80;;;;;;;18.99;43.45;101675.91;4963098;28;20968;-68
2022/11/29 07:17:32;;;;;;;5.13;3.05;;;;;;;18.96;43.37;101676.13;4963221;28;20074;-68
2022/11/29 07:20:19;;;;;;;3.95;2.70;;;;;;;19.00;43.27;101682.03;4963085;28;20562;-68
2022/11/29 07:23:01;;;;;;;4.72;3.10;;;;;;;18.98;43.36;101681.31;4977888;28;21276;-68
2022/11/29 07:25:29;;;;;;;4.63;2.92;;;;;;;19.01;43.22;101691.66;4962508;28;20414;-68
2022/11/29 07:28:17;;;;;;;5.25;3.22;;;;;;;19.01;43.42;101694.28;4962752;28;20046;-68
2022/11/29 07:31:07;;;;;;;7.10;3.15;;;;;;;19.01;43.50;101695.13;4962762;28;20049;-67
2022/11/29 07:33:57;;;;;;;4.72;3.20;;;;;;;19.00;43.57;101700.50;4962503;28;20053;-67
2022/11/29 07:36:43;;;;;;;4.47;3.08;;;;;;;19.01;43.72;101704.84;4962603;28;20494;-68
2022/11/29 07:39:20;;;;;;;5.65;3.67;;;;;;;19.00;43.90;101709.28;4962277;28;20057;-65
2022/11/29 07:41:54;;;;;;;4.97;3.42;;;;;;;18.96;43.86;101713.09;4962730;28;20031;-69
2022/11/29 07:44:37;;;;;;;5.07;3.30;;;;;;;19.00;43.77;101719.00;4962622;28;20038;-66
2022/11/29 07:47:03;;;;;;;5.53;3.50;;;;;;;18.97;43.83;101712.13;4962688;28;20061;-68
2022/11/29 07:49:28;;;;;;;5.10;3.28;;;;;;;18.99;43.51;101722.59;4962675;28;20043;-68
2022/11/29 07:51:54;;;;;;;5.22;3.40;;;;;;;18.99;43.45;101717.31;4962564;28;20066;-66
2022/11/29 07:54:20;;;;;;;6.55;3.80;;;;;;;18.96;43.88;101715.75;4962128;28;20042;-67
2022/11/29 07:56:46;;;;;;;5.85;3.50;;;;;;;18.98;44.05;101720.94;4962515;28;20053;-67
2022/11/29 07:59:11;;;;;;;4.93;3.58;;;;;;;18.94;43.83;101714.16;4962444;28;20126;-66
2022/11/29 08:01:38;;;;;;;5.80;3.80;;;;;;;18.97;43.85;101721.88;4962764;28;20134;-67
2022/11/29 08:04:04;;;;;;;4.80;3.35;;;;;;;18.98;43.77;101723.56;4962425;28;20070;-67
2022/11/29 08:06:30;;;;;;;4.90;3.53;;;;;;;18.98;43.93;101724.41;4962512;28;20043;-68
2022/11/29 08:08:59;;;;;;;5.10;3.40;;;;;;;18.95;44.02;101716.69;4962420;28;20043;-69
2022/11/29 08:11:24;;;;;;;5.13;3.35;;;;;;;18.96;43.75;101721.03;4961933;28;20035;-68
2022/11/29 08:13:55;;;;;;;4.47;3.20;;;;;;;18.97;44.01;101733.28;4962478;28;20061;-69
2022/11/29 08:16:20;;;;;;;5.30;3.33;;;;;;;18.97;43.83;101729.78;4962319;28;20042;-70
2022/11/29 08:18:46;;;;;;;5.25;3.30;;;;;;;18.96;44.01;101736.88;4962480;28;20035;-69
2022/11/29 08:21:16;;;;;;;5.47;3.30;;;;;;;18.99;43.75;101734.03;4962249;28;20911;-68
2022/11/29 08:23:42;;;;;;;5.38;3.67;;;;;;;19.00;43.92;101734.84;4965374;28;20272;-69
2022/11/29 08:26:07;;;;;;;6.05;3.33;;;;;;;18.99;43.77;101735.81;4965953;28;20053;-68
2022/11/29 08:28:32;;;;;;;4.87;3.40;;;;;;;19.02;43.83;101732.94;4966058;28;20134;-70
2022/11/29 08:31:03;;;;;;;6.60;3.78;;;;;;;18.99;44.06;101735.81;4965602;28;20362;-71
2022/11/29 08:33:29;;;;;;;5.32;3.40;;;;;;;19.02;43.88;101741.69;4965987;28;20499;-64
2022/11/29 08:35:55;;;;;;;5.30;3.38;;;;;;;19.04;43.80;101741.59;4965638;28;20049;-70
2022/11/29 08:38:20;;;;;;;6.20;3.20;;;;;;;19.10;44.04;101750.91;4980880;28;20396;-66
2022/11/29 08:40:45;;;;;;;5.53;3.20;;;;;;;19.13;43.90;101748.88;4965395;28;20042;-70
2022/11/29 08:43:10;;;;;;;6.27;2.87;;;;;;;19.20;43.83;101736.94;4966333;28;20113;-68
2022/11/29 08:45:36;;;;;;;4.90;2.70;;;;;;;19.24;43.88;101748.13;4966406;28;20271;-73
2022/11/29 08:48:01;;;;;;;4.30;2.70;;;;;;;19.28;43.88;101754.88;4965735;28;20756;-66
2022/11/29 08:50:26;;;;;;;5.95;2.72;;;;;;;19.29;43.89;101753.91;4965140;28;20031;-69
2022/11/29 08:55:39;;;;;;;8.25;2.92;;;;;;;19.30;43.60;101757.41;4965469;28;20092;-70
2022/11/29 08:58:10;;;;;;;6.95;2.80;;;;;;;19.26;43.84;101756.75;4966189;28;20047;-71
2022/11/29 09:00:36;;;;;;;5.32;3.22;;;;;;;19.26;43.84;101764.69;4964343;28;20483;-71
2022/11/29 09:05:48;;;;;;;5.43;3.00;;;;;;;19.21;44.12;101765.00;4957887;28;20045;-70
2022/11/29 09:08:13;;;;;;;6.68;3.28;;;;;;;19.16;43.89;101764.50;4957410;28;20035;-70
2022/11/29 09:10:40;;;;;;;7.95;3.47;;;;;;;19.19;44.15;101766.94;4957863;28;20034;-75
2022/11/29 09:13:06;;;;;;;6.78;3.25;;;;;;;19.17;43.96;101768.00;4957826;28;20038;-72
2022/11/29 09:15:31;;;;;;;6.07;3.35;;;;;;;19.15;43.86;101764.63;4958949;28;20039;-73
2022/11/29 09:17:57;;;;;;;6.90;3.63;;;;;;;19.21;43.90;101772.94;4957740;28;20046;-72
2022/11/29 09:20:22;;;;;;;8.13;4.03;;;;;;;19.22;44.01;101779.09;4957576;28;20104;-70
2022/11/29 09:22:47;;;;;;;6.53;3.22;;;;;;;19.23;44.23;101777.28;4957890;28;20042;-71
2022/11/29 09:25:13;;;;;;;5.57;3.42;;;;;;;19.21;44.22;101772.13;4958325;28;20037;-70
2022/11/29 09:27:40;;;;;;;6.93;3.65;;;;;;;19.25;44.02;101780.66;4958526;28;20049;-72
2022/11/29 09:30:07;;;;;;;9.57;3.95;;;;;;;19.26;43.90;101790.28;4957427;28;20038;-73
2022/11/29 09:32:33;;;;;;;5.68;3.60;;;;;;;19.28;43.87;101793.66;4957533;28;20043;-71
2022/11/29 09:34:58;;;;;;;7.35;3.53;;;;;;;19.26;43.87;101792.94;4958375;28;20403;-78
2022/11/29 09:37:24;;;;;;;7.43;3.55;;;;;;;19.30;43.83;101802.34;4958063;28;20043;-69
2022/11/29 09:39:49;;;;;;;6.82;3.90;;;;;;;19.30;43.74;101800.53;4958911;28;20899;-69
2022/11/29 09:42:45;;;;;;;9.90;4.00;;;;;;;19.31;43.93;101802.22;4959543;28;20049;-73
2022/11/29 09:45:17;;;;;;;9.38;3.67;;;;;;;19.30;43.95;101808.47;4957922;28;20065;-71
2022/11/29 09:48:17;;;;;;;6.68;4.07;;;;;;;19.32;44.22;101811.00;4957167;28;20055;-72
2022/11/29 09:51:06;;;;;;;6.05;3.80;;;;;;;19.31;43.96;101809.28;4957273;28;20035;-74
2022/11/29 09:53:46;;;;;;;6.75;3.88;;;;;;;19.32;43.97;101806.53;4957358;28;20031;-75
2022/11/29 09:56:19;;;;;;;6.85;3.92;;;;;;;19.33;43.81;101813.53;4957040;28;20033;-72
2022/11/29 09:58:57;;;;;;;6.32;3.95;;;;;;;19.31;44.01;101815.44;4956775;28;20466;-68
2022/11/29 10:01:27;;;;;;;7.22;4.15;;;;;;;19.32;43.94;101821.56;4956141;28;20030;-70
2022/11/29 10:03:59;;;;;;;7.50;4.07;;;;;;;19.30;43.80;101819.03;4956709;28;20042;-74
2022/11/29 10:07:03;;;;;;;6.90;4.03;;;;;;;19.34;43.97;101823.16;4970857;28;20452;-69
2022/11/29 10:09:45;;;;;;;6.18;3.55;;;;;;;19.31;43.96;101818.09;4972109;28;20045;-76
2022/11/29 10:12:16;;;;;;;6.20;3.88;;;;;;;19.32;44.15;101817.13;4973101;28;20197;-76
2022/11/29 10:14:48;;;;;;;6.75;3.70;;;;;;;19.31;43.86;101826.03;4963715;28;20427;-76
2022/11/29 10:17:31;;;;;;;8.10;3.90;;;;;;;19.29;43.92;101812.03;4956745;28;20042;-67
2022/11/29 10:20:03;;;;;;;6.88;4.22;;;;;;;19.31;43.88;101823.38;4956312;28;20039;-74
2022/11/29 10:22:52;;;;;;;5.65;3.72;;;;;;;19.30;44.08;101820.84;4971454;28;20085;-70
2022/11/29 10:25:28;;;;;;;6.03;3.78;;;;;;;19.26;43.79;101814.91;4956624;28;20038;-71
2022/11/29 10:27:54;;;;;;;6.03;3.63;;;;;;;19.32;44.06;101819.75;4955787;28;20051;-72
2022/11/29 10:30:20;;;;;;;6.03;3.90;;;;;;;19.23;44.29;101799.25;4956551;28;20098;-73
2022/11/29 10:32:50;;;;;;;6.68;4.65;;;;;;;19.26;44.02;101801.69;4955858;28;20061;-73
2022/11/29 10:35:18;;;;;;;7.90;3.88;;;;;;;19.30;44.14;101807.63;4957296;28;20038;-72
2022/11/29 10:37:44;;;;;;;6.22;3.80;;;;;;;19.26;44.21;101800.84;4956653;28;20042;-71
2022/11/29 10:40:25;;;;;;;5.95;3.80;;;;;;;19.29;43.94;101804.13;4956722;28;20495;-71
2022/11/29 10:42:52;;;;;;;6.40;3.78;;;;;;;19.27;44.10;101799.91;4956797;28;20054;-71
2022/11/29 10:45:30;;;;;;;6.28;4.20;;;;;;;19.24;43.86;101803.59;4955795;28;20406;-71
2022/11/29 10:48:17;;;;;;;6.00;4.03;;;;;;;19.27;44.14;101813.97;4956529;28;20128;-72
2022/11/29 10:50:44;;;;;;;5.95;3.95;;;;;;;19.28;44.05;101817.44;4956452;28;20062;-73
2022/11/29 10:53:13;;;;;;;6.95;4.20;;;;;;;19.29;43.97;101817.34;4956286;28;20070;-68
2022/11/29 10:55:52;;;;;;;7.45;4.28;;;;;;;19.27;44.04;101818.41;4955637;28;20535;-69
2022/11/29 10:58:24;;;;;;;7.20;4.00;;;;;;;19.27;43.95;101813.97;4961046;28;20126;-69
2022/11/29 11:00:58;;;;;;;6.13;4.05;;;;;;;19.24;44.05;101816.00;4961559;28;20037;-70
2022/11/29 11:03:43;;;;;;;;;;;;;;;19.33;43.79;101821.47;4963725;28;20031;-70
2022/11/29 11:06:11;;;;;;;6.10;4.15;;;;;;;19.31;43.63;101822.50;4962938;28;19914;-71
2022/11/29 11:08:37;;;;;;;8.35;3.83;;;;;;;19.28;43.74;101823.59;4963338;28;20039;-66
2022/11/29 11:11:06;;;;;;;6.50;3.85;;;;;;;19.24;43.93;101823.91;4963082;28;20039;-68
2022/11/29 11:13:32;;;;;;;6.60;4.10;;;;;;;19.23;44.24;101817.75;4978368;28;20395;-70
2022/11/29 11:16:08;;;;;;;6.47;4.18;;;;;;;19.22;44.21;101816.09;4963079;28;20030;-69
2022/11/29 11:18:35;;;;;;;6.05;3.50;;;;;;;19.23;44.20;101816.94;4976813;28;20522;-65
2022/11/29 11:21:01;;;;;;;6.22;3.75;;;;;;;19.18;44.60;101817.25;4956100;28;20065;-76
2022/11/29 11:23:36;;;;;;;6.75;4.20;;;;;;;19.12;44.59;101815.03;4956714;28;20141;-74
2022/11/29 11:26:06;;;;;;;6.20;4.20;;;;;;;19.13;44.55;101819.38;4956235;28;20081;-75
2022/11/29 11:28:48;;;;;;;7.35;3.50;;;;;;;19.16;44.83;101827.09;4956711;28;20066;-71
2022/11/29 11:31:14;;;;;;;7.32;3.80;;;;;;;19.16;44.82;101835.84;4955430;28;20023;-72
2022/11/29 11:33:43;;;;;;;7.53;3.75;;;;;;;19.14;44.84;101832.47;4955243;28;20377;-73
2022/11/29 11:36:18;;;;;;;6.03;3.53;;;;;;;19.16;44.79;101835.03;4956065;28;20385;-73
2022/11/29 11:39:07;;;;;;;6.03;3.63;;;;;;;19.17;44.82;101836.72;4955587;28;20044;-71
2022/11/29 11:44:48;;;;;;;5.55;3.40;;;;;;;19.14;44.88;101836.94;4952634;28;20482;-69
2022/11/29 11:47:28;;;;;;;6.80;3.97;;;;;;;19.16;44.83;101841.13;4955260;28;20043;-71
2022/11/29 11:50:05;;;;;;;6.72;3.92;;;;;;;19.08;45.10;101824.97;4955240;28;20030;-71
2022/11/29 11:52:52;;;;;;;6.80;3.90;;;;;;;19.19;44.97;101845.38;4972547;28;20042;-69
2022/11/29 11:55:21;;;;;;;10.77;4.43;;;;;;;19.19;44.84;101845.38;4956172;28;20062;-68
2022/11/29 11:58:12;;;;;;;6.88;3.88;;;;;;;19.14;44.87;101845.69;4960499;28;20066;-72
2022/11/29 12:00:41;;;;;;;6.53;4.00;;;;;;;19.17;45.16;101845.47;4961403;28;20031;-74
2022/11/29 12:03:23;;;;;;;6.03;4.05;;;;;;;19.19;45.15;101853.31;4961548;28;20027;-73
2022/11/29 12:05:52;;;;;;;8.82;4.10;;;;;;;19.19;45.18;101864.72;4961403;28;20132;-76
2022/11/29 12:08:18;;;;;;;7.43;4.00;;;;;;;19.17;45.13;101863.16;4958991;28;20040;-72
2022/11/29 12:10:47;;;;;;;7.72;4.35;;;;;;;19.16;45.07;101864.91;4958564;28;20049;-72
2022/11/29 12:13:27;;;;;;;6.63;4.28;;;;;;;19.20;45.07;101871.69;4958743;28;20664;-70